sensor_id;sensor_type;location;lat;lon;timestamp;pressure;altitude;pressure_sealevel;temperature;humidity
71716;BME280;59568;52.128;5.434;2023-07-30T00:00:34;100977.34;;;15.23;87.97
71716;BME280;59568;52.128;5.434;2023-07-30T00:03:01;100986.94;;;15.18;88.21
71716;BME280;59568;52.128;5.434;2023-07-30T00:05:30;100973.63;;;15.15;88.52
71716;BME280;59568;52.128;5.434;2023-07-30T00:07:56;100983.72;;;15.13;88.63
71716;BME280;59568;52.128;5.434;2023-07-30T00:10:26;100987.75;;;15.10;88.90
71716;BME280;59568;52.128;5.434;2023-07-30T00:12:52;100985.28;;;15.05;88.73
71716;BME280;59568;52.128;5.434;2023-07-30T00:15:19;100992.72;;;15.03;89.02
71716;BME280;59568;52.128;5.434;2023-07-30T00:17:46;100988.84;;;15.01;89.28
71716;BME280;59568;52.128;5.434;2023-07-30T00:20:13;100987.59;;;14.98;89.05
71716;BME280;59568;52.128;5.434;2023-07-30T00:22:39;100992.41;;;14.96;89.51
71716;BME280;59568;52.128;5.434;2023-07-30T00:25:06;100996.09;;;14.95;89.73
71716;BME280;59568;52.128;5.434;2023-07-30T00:27:33;100991.47;;;14.92;89.87
71716;BME280;59568;52.128;5.434;2023-07-30T00:30:00;100999.38;;;14.92;90.08
71716;BME280;59568;52.128;5.434;2023-07-30T00:32:26;100988.38;;;14.90;90.09
71716;BME280;59568;52.128;5.434;2023-07-30T00:34:53;100994.41;;;14.90;90.08
71716;BME280;59568;52.128;5.434;2023-07-30T00:37:19;100994.72;;;14.89;90.11
71716;BME280;59568;52.128;5.434;2023-07-30T00:39:46;100990.84;;;14.86;90.25
71716;BME280;59568;52.128;5.434;2023-07-30T00:42:13;100995.81;;;14.88;90.50
71716;BME280;59568;52.128;5.434;2023-07-30T00:44:40;100999.50;;;14.87;90.58
71716;BME280;59568;52.128;5.434;2023-07-30T00:47:07;100990.09;;;14.86;90.62
71716;BME280;59568;52.128;5.434;2023-07-30T00:49:34;100994.88;;;14.84;90.59
71716;BME280;59568;52.128;5.434;2023-07-30T00:52:01;100991.16;;;14.85;90.64
71716;BME280;59568;52.128;5.434;2023-07-30T00:54:28;100985.44;;;14.83;90.60
71716;BME280;59568;52.128;5.434;2023-07-30T00:56:55;100985.44;;;14.83;90.57
71716;BME280;59568;52.128;5.434;2023-07-30T00:59:22;100988.69;;;14.80;91.04
71716;BME280;59568;52.128;5.434;2023-07-30T01:01:50;100982.97;;;14.77;91.01
71716;BME280;59568;52.128;5.434;2023-07-30T01:04:17;100989.31;;;14.76;91.41
71716;BME280;59568;52.128;5.434;2023-07-30T01:06:44;100991.47;;;14.74;91.61
71716;BME280;59568;52.128;5.434;2023-07-30T01:09:11;100985.44;;;14.74;91.71
71716;BME280;59568;52.128;5.434;2023-07-30T01:11:38;100991.47;;;14.74;92.08
71716;BME280;59568;52.128;5.434;2023-07-30T01:14:07;101003.84;;;14.74;92.29
71716;BME280;59568;52.128;5.434;2023-07-30T01:16:35;101004.63;;;14.74;92.35
71716;BME280;59568;52.128;5.434;2023-07-30T01:19:03;101005.72;;;14.73;92.38
71716;BME280;59568;52.128;5.434;2023-07-30T01:21:35;101007.88;;;14.71;92.55
71716;BME280;59568;52.128;5.434;2023-07-30T01:24:03;100997.66;;;14.70;92.80
71716;BME280;59568;52.128;5.434;2023-07-30T01:26:38;101001.38;;;14.69;93.11
71716;BME280;59568;52.128;5.434;2023-07-30T01:29:14;101001.38;;;14.69;93.05
71716;BME280;59568;52.128;5.434;2023-07-30T01:31:43;101010.34;;;14.68;93.09
71716;BME280;59568;52.128;5.434;2023-07-30T01:34:12;101002.47;;;14.68;93.10
71716;BME280;59568;52.128;5.434;2023-07-30T01:36:39;101011.41;;;14.67;93.37
71716;BME280;59568;52.128;5.434;2023-07-30T01:39:09;101014.50;;;14.69;93.38
71716;BME280;59568;52.128;5.434;2023-07-30T01:41:35;101006.63;;;14.69;93.81
71716;BME280;59568;52.128;5.434;2023-07-30T01:44:03;101016.06;;;14.70;94.01
71716;BME280;59568;52.128;5.434;2023-07-30T01:46:29;101006.03;;;14.72;93.75
71716;BME280;59568;52.128;5.434;2023-07-30T01:48:56;101008.81;;;14.75;94.19
71716;BME280;59568;52.128;5.434;2023-07-30T01:51:22;101014.53;;;14.77;94.14
71716;BME280;59568;52.128;5.434;2023-07-30T01:53:49;101002.91;;;14.78;94.25
71716;BME280;59568;52.128;5.434;2023-07-30T01:56:16;101013.91;;;14.81;94.29
71716;BME280;59568;52.128;5.434;2023-07-30T01:58:42;101013.59;;;14.82;94.08
71716;BME280;59568;52.128;5.434;2023-07-30T02:01:09;101017.47;;;14.85;94.28
71716;BME280;59568;52.128;5.434;2023-07-30T02:03:36;101011.13;;;14.86;94.53
71716;BME280;59568;52.128;5.434;2023-07-30T02:06:03;101019.03;;;14.86;94.68
71716;BME280;59568;52.128;5.434;2023-07-30T02:08:29;101014.84;;;14.85;94.85
71716;BME280;59568;52.128;5.434;2023-07-30T02:10:58;101017.16;;;14.86;95.09
71716;BME280;59568;52.128;5.434;2023-07-30T02:13:25;101018.72;;;14.87;95.36
71716;BME280;59568;52.128;5.434;2023-07-30T02:15:52;101013.94;;;14.89;95.33
71716;BME280;59568;52.128;5.434;2023-07-30T02:18:19;101015.47;;;14.90;95.21
71716;BME280;59568;52.128;5.434;2023-07-30T02:20:45;101006.50;;;14.91;95.53
71716;BME280;59568;52.128;5.434;2023-07-30T02:23:14;101012.53;;;14.92;95.54
71716;BME280;59568;52.128;5.434;2023-07-30T02:25:41;101016.22;;;14.91;95.81
71716;BME280;59568;52.128;5.434;2023-07-30T02:28:07;101008.03;;;14.92;95.86
71716;BME280;59568;52.128;5.434;2023-07-30T02:30:34;101013.28;;;14.92;95.68
71716;BME280;59568;52.128;5.434;2023-07-30T02:33:01;101011.75;;;14.91;95.82
71716;BME280;59568;52.128;5.434;2023-07-30T02:35:28;101014.69;;;14.90;96.18
71716;BME280;59568;52.128;5.434;2023-07-30T02:37:54;101013.13;;;14.89;96.00
71716;BME280;59568;52.128;5.434;2023-07-30T02:40:21;101006.03;;;14.89;96.14
71716;BME280;59568;52.128;5.434;2023-07-30T02:42:47;101005.25;;;14.89;96.40
71716;BME280;59568;52.128;5.434;2023-07-30T02:45:14;100995.81;;;14.88;96.49
71716;BME280;59568;52.128;5.434;2023-07-30T02:47:41;101006.34;;;14.88;96.03
71716;BME280;59568;52.128;5.434;2023-07-30T02:50:08;100999.50;;;14.87;96.62
71716;BME280;59568;52.128;5.434;2023-07-30T02:52:35;101003.25;;;14.86;96.65
71716;BME280;59568;52.128;5.434;2023-07-30T02:55:02;101002.47;;;14.85;96.62
71716;BME280;59568;52.128;5.434;2023-07-30T02:57:29;101000.16;;;14.84;97.01
71716;BME280;59568;52.128;5.434;2023-07-30T02:59:55;101003.84;;;14.83;97.56
71716;BME280;59568;52.128;5.434;2023-07-30T03:02:22;101005.25;;;14.80;97.70
71716;BME280;59568;52.128;5.434;2023-07-30T03:04:49;101002.91;;;14.78;97.36
71716;BME280;59568;52.128;5.434;2023-07-30T03:07:15;100996.44;;;14.76;97.50
71716;BME280;59568;52.128;5.434;2023-07-30T03:09:42;101004.63;;;14.74;97.52
71716;BME280;59568;52.128;5.434;2023-07-30T03:12:09;100998.28;;;14.75;97.72
71716;BME280;59568;52.128;5.434;2023-07-30T03:14:35;101000.91;;;14.75;97.59
71716;BME280;59568;52.128;5.434;2023-07-30T03:17:02;101008.34;;;14.73;98.06
71716;BME280;59568;52.128;5.434;2023-07-30T03:19:29;101009.41;;;14.72;98.06
71716;BME280;59568;52.128;5.434;2023-07-30T03:21:55;101007.13;;;14.71;98.42
71716;BME280;59568;52.128;5.434;2023-07-30T03:24:22;101011.59;;;14.70;98.72
71716;BME280;59568;52.128;5.434;2023-07-30T03:26:48;101014.69;;;14.72;98.68
71716;BME280;59568;52.128;5.434;2023-07-30T03:29:15;101009.41;;;14.72;98.67
71716;BME280;59568;52.128;5.434;2023-07-30T03:31:42;101003.69;;;14.70;98.88
71716;BME280;59568;52.128;5.434;2023-07-30T03:34:08;101010.03;;;14.69;98.86
71716;BME280;59568;52.128;5.434;2023-07-30T03:36:35;101000.91;;;14.67;99.00
71716;BME280;59568;52.128;5.434;2023-07-30T03:39:02;101009.13;;;14.65;99.50
71716;BME280;59568;52.128;5.434;2023-07-30T03:41:28;101019.63;;;14.65;99.82
71716;BME280;59568;52.128;5.434;2023-07-30T03:43:55;101013.59;;;14.65;99.58
71716;BME280;59568;52.128;5.434;2023-07-30T03:46:22;101013.59;;;14.65;99.07
71716;BME280;59568;52.128;5.434;2023-07-30T03:48:48;101018.06;;;14.64;99.07
71716;BME280;59568;52.128;5.434;2023-07-30T03:51:15;101020.25;;;14.62;99.70
71716;BME280;59568;52.128;5.434;2023-07-30T03:53:42;101018.72;;;14.61;100.00
71716;BME280;59568;52.128;5.434;2023-07-30T03:56:11;101018.72;;;14.61;100.00
71716;BME280;59568;52.128;5.434;2023-07-30T03:58:38;101022.41;;;14.60;100.00
71716;BME280;59568;52.128;5.434;2023-07-30T04:01:04;101017.16;;;14.60;100.00
71716;BME280;59568;52.128;5.434;2023-07-30T04:03:31;101023.97;;;14.61;100.00
71716;BME280;59568;52.128;5.434;2023-07-30T04:05:58;101021.34;;;14.61;100.00
71716;BME280;59568;52.128;5.434;2023-07-30T04:08:24;101018.84;;;14.65;100.00
71716;BME280;59568;52.128;5.434;2023-07-30T04:10:51;101019.00;;;14.68;100.00
71716;BME280;59568;52.128;5.434;2023-07-30T04:13:17;101019.78;;;14.69;100.00
71716;BME280;59568;52.128;5.434;2023-07-30T04:15:47;101025.53;;;14.71;100.00
71716;BME280;59568;52.128;5.434;2023-07-30T04:18:14;101019.94;;;14.72;100.00
71716;BME280;59568;52.128;5.434;2023-07-30T04:20:40;101023.03;;;14.74;100.00
71716;BME280;59568;52.128;5.434;2023-07-30T04:23:07;101018.56;;;14.75;100.00
71716;BME280;59568;52.128;5.434;2023-07-30T04:25:33;101026.13;;;14.76;100.00
71716;BME280;59568;52.128;5.434;2023-07-30T04:28:00;101023.97;;;14.78;100.00
71716;BME280;59568;52.128;5.434;2023-07-30T04:30:27;101025.22;;;14.81;100.00
71716;BME280;59568;52.128;5.434;2023-07-30T04:32:54;101031.41;;;14.85;100.00
71716;BME280;59568;52.128;5.434;2023-07-30T04:35:20;101031.25;;;14.90;100.00
71716;BME280;59568;52.128;5.434;2023-07-30T04:37:47;101033.75;;;14.95;100.00
71716;BME280;59568;52.128;5.434;2023-07-30T04:40:14;101033.91;;;14.99;100.00
71716;BME280;59568;52.128;5.434;2023-07-30T04:42:40;101029.56;;;15.03;100.00
71716;BME280;59568;52.128;5.434;2023-07-30T04:45:07;101038.38;;;15.07;100.00
71716;BME280;59568;52.128;5.434;2023-07-30T04:47:34;101038.84;;;15.09;100.00
71716;BME280;59568;52.128;5.434;2023-07-30T04:50:00;101047.22;;;15.11;100.00
71716;BME280;59568;52.128;5.434;2023-07-30T04:52:27;101047.34;;;15.15;100.00
71716;BME280;59568;52.128;5.434;2023-07-30T04:54:54;101041.94;;;15.20;100.00
71716;BME280;59568;52.128;5.434;2023-07-30T04:57:20;101049.97;;;15.24;100.00
71716;BME280;59568;52.128;5.434;2023-07-30T04:59:47;101052.44;;;15.29;100.00
71716;BME280;59568;52.128;5.434;2023-07-30T05:02:13;101050.44;;;15.34;100.00
71716;BME280;59568;52.128;5.434;2023-07-30T05:04:40;101051.34;;;15.38;100.00
71716;BME280;59568;52.128;5.434;2023-07-30T05:07:07;101059.56;;;15.46;100.00
71716;BME280;59568;52.128;5.434;2023-07-30T05:09:33;101049.63;;;15.51;100.00
71716;BME280;59568;52.128;5.434;2023-07-30T05:12:00;101053.66;;;15.57;100.00
71716;BME280;59568;52.128;5.434;2023-07-30T05:14:27;101050.84;;;15.63;100.00
71716;BME280;59568;52.128;5.434;2023-07-30T05:16:53;101053.78;;;15.70;100.00
71716;BME280;59568;52.128;5.434;2023-07-30T05:19:20;101059.34;;;15.77;100.00
71716;BME280;59568;52.128;5.434;2023-07-30T05:21:46;101047.09;;;15.81;100.00
71716;BME280;59568;52.128;5.434;2023-07-30T05:24:13;101057.63;;;15.90;100.00
71716;BME280;59568;52.128;5.434;2023-07-30T05:26:40;101052.94;;;15.95;100.00
71716;BME280;59568;52.128;5.434;2023-07-30T05:29:06;101055.41;;;16.01;100.00
71716;BME280;59568;52.128;5.434;2023-07-30T05:31:33;101064.38;;;16.08;100.00
71716;BME280;59568;52.128;5.434;2023-07-30T05:34:00;101058.13;;;16.13;100.00
71716;BME280;59568;52.128;5.434;2023-07-30T05:36:28;101061.22;;;16.15;100.00
71716;BME280;59568;52.128;5.434;2023-07-30T05:38:54;101059.19;;;16.21;100.00
71716;BME280;59568;52.128;5.434;2023-07-30T05:41:21;101060.88;;;16.25;100.00
71716;BME280;59568;52.128;5.434;2023-07-30T05:43:47;101067.84;;;16.30;100.00
71716;BME280;59568;52.128;5.434;2023-07-30T05:46:15;101062.06;;;16.36;100.00
71716;BME280;59568;52.128;5.434;2023-07-30T05:48:41;101062.66;;;16.42;100.00
71716;BME280;59568;52.128;5.434;2023-07-30T05:51:08;101058.09;;;16.51;100.00
71716;BME280;59568;52.128;5.434;2023-07-30T05:53:35;101060.88;;;16.55;100.00
71716;BME280;59568;52.128;5.434;2023-07-30T05:56:01;101062.88;;;16.58;100.00
71716;BME280;59568;52.128;5.434;2023-07-30T05:58:28;101071.34;;;16.64;100.00
71716;BME280;59568;52.128;5.434;2023-07-30T06:00:54;101063.41;;;16.72;100.00
71716;BME280;59568;52.128;5.434;2023-07-30T06:03:21;101065.84;;;16.77;100.00
71716;BME280;59568;52.128;5.434;2023-07-30T06:05:48;101071.13;;;16.77;100.00
71716;BME280;59568;52.128;5.434;2023-07-30T06:08:15;101069.84;;;16.84;99.90
71716;BME280;59568;52.128;5.434;2023-07-30T06:10:42;101073.75;;;16.86;99.35
71716;BME280;59568;52.128;5.434;2023-07-30T06:13:08;101069.84;;;16.84;99.37
71716;BME280;59568;52.128;5.434;2023-07-30T06:15:35;101074.06;;;16.85;99.04
71716;BME280;59568;52.128;5.434;2023-07-30T06:18:02;101080.53;;;16.87;98.76
71716;BME280;59568;52.128;5.434;2023-07-30T06:20:30;101076.03;;;16.88;98.23
71716;BME280;59568;52.128;5.434;2023-07-30T06:22:56;101070.31;;;16.86;98.18
71716;BME280;59568;52.128;5.434;2023-07-30T06:25:23;101068.00;;;16.84;98.05
71716;BME280;59568;52.128;5.434;2023-07-30T06:27:49;101066.28;;;16.88;98.39
71716;BME280;59568;52.128;5.434;2023-07-30T06:30:16;101076.16;;;16.91;97.56
71716;BME280;59568;52.128;5.434;2023-07-30T06:32:43;101076.44;;;16.99;97.37
71716;BME280;59568;52.128;5.434;2023-07-30T06:35:10;101079.91;;;17.11;98.07
71716;BME280;59568;52.128;5.434;2023-07-30T06:37:36;101074.03;;;17.27;98.05
71716;BME280;59568;52.128;5.434;2023-07-30T06:40:04;101084.38;;;17.32;97.13
71716;BME280;59568;52.128;5.434;2023-07-30T06:42:32;101076.47;;;17.32;97.04
71716;BME280;59568;52.128;5.434;2023-07-30T06:45:00;101079.88;;;17.32;97.10
71716;BME280;59568;52.128;5.434;2023-07-30T06:47:26;101077.03;;;17.37;96.80
71716;BME280;59568;52.128;5.434;2023-07-30T06:49:53;101070.00;;;17.42;96.17
71716;BME280;59568;52.128;5.434;2023-07-30T06:52:20;101060.88;;;17.39;95.46
71716;BME280;59568;52.128;5.434;2023-07-30T06:54:47;101063.81;;;17.37;95.35
71716;BME280;59568;52.128;5.434;2023-07-30T06:57:13;101068.78;;;17.39;95.62
71716;BME280;59568;52.128;5.434;2023-07-30T06:59:40;101065.69;;;17.37;95.43
71716;BME280;59568;52.128;5.434;2023-07-30T07:02:07;101074.72;;;17.36;95.50
71716;BME280;59568;52.128;5.434;2023-07-30T07:04:33;101068.22;;;17.33;95.19
71716;BME280;59568;52.128;5.434;2023-07-30T07:07:00;101061.84;;;17.34;95.32
71716;BME280;59568;52.128;5.434;2023-07-30T07:09:29;101074.94;;;17.31;94.88
71716;BME280;59568;52.128;5.434;2023-07-30T07:11:56;101075.81;;;17.35;95.61
71716;BME280;59568;52.128;5.434;2023-07-30T07:14:23;101080.44;;;17.38;95.20
71716;BME280;59568;52.128;5.434;2023-07-30T07:16:49;101090.56;;;17.36;94.58
71716;BME280;59568;52.128;5.434;2023-07-30T07:19:16;101085.69;;;17.26;94.62
71716;BME280;59568;52.128;5.434;2023-07-30T07:21:43;101088.63;;;17.24;94.37
71716;BME280;59568;52.128;5.434;2023-07-30T07:24:10;101081.94;;;17.27;94.74
71716;BME280;59568;52.128;5.434;2023-07-30T07:26:36;101086.56;;;17.30;94.38
71716;BME280;59568;52.128;5.434;2023-07-30T07:29:03;101092.13;;;17.37;94.27
71716;BME280;59568;52.128;5.434;2023-07-30T07:31:30;101083.88;;;17.39;93.50
71716;BME280;59568;52.128;5.434;2023-07-30T07:33:58;101094.44;;;17.39;93.68
71716;BME280;59568;52.128;5.434;2023-07-30T07:36:25;101089.38;;;17.46;93.44
71716;BME280;59568;52.128;5.434;2023-07-30T07:38:51;101087.88;;;17.57;93.00
71716;BME280;59568;52.128;5.434;2023-07-30T07:41:18;101091.66;;;17.68;92.35
71716;BME280;59568;52.128;5.434;2023-07-30T07:43:46;101083.41;;;17.82;92.41
71716;BME280;59568;52.128;5.434;2023-07-30T07:46:13;101083.25;;;17.87;92.53
71716;BME280;59568;52.128;5.434;2023-07-30T07:48:41;101071.69;;;17.92;92.02
71716;BME280;59568;52.128;5.434;2023-07-30T07:51:11;101081.25;;;18.09;91.51
71716;BME280;59568;52.128;5.434;2023-07-30T07:53:38;101076.00;;;18.21;90.47
71716;BME280;59568;52.128;5.434;2023-07-30T07:56:05;101078.97;;;18.32;89.97
71716;BME280;59568;52.128;5.434;2023-07-30T07:58:32;101082.38;;;18.32;88.72
71716;BME280;59568;52.128;5.434;2023-07-30T08:00:59;101081.81;;;18.27;88.82
71716;BME280;59568;52.128;5.434;2023-07-30T08:03:26;101082.69;;;18.31;89.07
71716;BME280;59568;52.128;5.434;2023-07-30T08:05:56;101086.13;;;18.31;88.45
71716;BME280;59568;52.128;5.434;2023-07-30T08:08:25;101092.06;;;18.41;88.83
71716;BME280;59568;52.128;5.434;2023-07-30T08:10:54;101091.16;;;18.73;88.87
71716;BME280;59568;52.128;5.434;2023-07-30T08:13:20;101097.06;;;18.95;87.98
71716;BME280;59568;52.128;5.434;2023-07-30T08:15:47;101092.97;;;19.10;87.07
71716;BME280;59568;52.128;5.434;2023-07-30T08:18:14;101085.97;;;19.62;86.48
71716;BME280;59568;52.128;5.434;2023-07-30T08:20:40;101081.81;;;20.08;83.10
71716;BME280;59568;52.128;5.434;2023-07-30T08:23:11;101086.53;;;20.15;82.61
71716;BME280;59568;52.128;5.434;2023-07-30T08:25:37;101082.59;;;19.93;82.19
71716;BME280;59568;52.128;5.434;2023-07-30T08:28:07;101086.28;;;19.72;82.78
71716;BME280;59568;52.128;5.434;2023-07-30T08:30:34;101076.91;;;19.63;81.80
71716;BME280;59568;52.128;5.434;2023-07-30T08:33:00;101071.75;;;19.38;81.29
71716;BME280;59568;52.128;5.434;2023-07-30T08:35:28;101080.69;;;19.05;82.75
71716;BME280;59568;52.128;5.434;2023-07-30T08:37:54;101077.91;;;18.86;83.40
71716;BME280;59568;52.128;5.434;2023-07-30T08:40:22;101069.28;;;18.76;83.07
71716;BME280;59568;52.128;5.434;2023-07-30T08:42:51;101076.16;;;18.77;83.33
71716;BME280;59568;52.128;5.434;2023-07-30T08:45:18;101088.16;;;18.87;84.32
71716;BME280;59568;52.128;5.434;2023-07-30T08:47:46;101084.09;;;18.90;84.14
71716;BME280;59568;52.128;5.434;2023-07-30T08:50:13;101087.56;;;19.06;84.05
71716;BME280;59568;52.128;5.434;2023-07-30T08:52:42;101095.34;;;19.15;83.37
71716;BME280;59568;52.128;5.434;2023-07-30T08:55:10;101084.75;;;19.15;82.51
71716;BME280;59568;52.128;5.434;2023-07-30T08:57:37;101092.16;;;19.38;83.23
71716;BME280;59568;52.128;5.434;2023-07-30T09:00:11;101079.59;;;19.79;81.46
71716;BME280;59568;52.128;5.434;2023-07-30T09:02:47;101088.16;;;19.88;81.14
71716;BME280;59568;52.128;5.434;2023-07-30T09:05:14;101101.59;;;20.11;81.01
71716;BME280;59568;52.128;5.434;2023-07-30T09:07:41;101099.69;;;20.27;79.30
71716;BME280;59568;52.128;5.434;2023-07-30T09:10:08;101102.69;;;20.26;79.69
71716;BME280;59568;52.128;5.434;2023-07-30T09:12:35;101103.38;;;20.23;78.79
71716;BME280;59568;52.128;5.434;2023-07-30T09:15:03;101093.72;;;20.14;79.65
71716;BME280;59568;52.128;5.434;2023-07-30T09:17:34;101087.97;;;20.12;79.50
71716;BME280;59568;52.128;5.434;2023-07-30T09:20:04;101102.44;;;20.15;80.36
71716;BME280;59568;52.128;5.434;2023-07-30T09:22:32;101100.31;;;20.21;78.25
71716;BME280;59568;52.128;5.434;2023-07-30T09:25:05;101108.00;;;20.10;78.87
71716;BME280;59568;52.128;5.434;2023-07-30T09:27:33;101113.81;;;20.00;78.83
71716;BME280;59568;52.128;5.434;2023-07-30T09:30:02;101119.13;;;20.00;80.09
71716;BME280;59568;52.128;5.434;2023-07-30T09:32:33;101123.31;;;20.01;79.67
71716;BME280;59568;52.128;5.434;2023-07-30T09:35:10;101122.38;;;19.93;79.07
71716;BME280;59568;52.128;5.434;2023-07-30T09:37:39;101112.38;;;19.86;79.16
71716;BME280;59568;52.128;5.434;2023-07-30T09:40:08;101116.22;;;19.89;79.42
71716;BME280;59568;52.128;5.434;2023-07-30T09:42:38;101123.31;;;20.01;80.01
71716;BME280;59568;52.128;5.434;2023-07-30T09:45:16;101131.88;;;20.10;79.33
71716;BME280;59568;52.128;5.434;2023-07-30T09:47:47;101134.19;;;20.11;79.09
71716;BME280;59568;52.128;5.434;2023-07-30T09:50:15;101138.53;;;20.35;78.83
71716;BME280;59568;52.128;5.434;2023-07-30T09:52:42;101130.97;;;20.53;77.67
71716;BME280;59568;52.128;5.434;2023-07-30T09:55:10;101133.41;;;20.43;77.23
71716;BME280;59568;52.128;5.434;2023-07-30T09:57:38;101140.44;;;20.35;76.67
71716;BME280;59568;52.128;5.434;2023-07-30T10:00:06;101144.44;;;20.45;76.96
71716;BME280;59568;52.128;5.434;2023-07-30T10:02:39;101145.72;;;20.35;77.22
71716;BME280;59568;52.128;5.434;2023-07-30T10:05:17;101148.03;;;20.88;78.27
71716;BME280;59568;52.128;5.434;2023-07-30T10:08:00;101146.97;;;21.47;76.14
71716;BME280;59568;52.128;5.434;2023-07-30T10:10:28;101147.91;;;21.59;71.99
71716;BME280;59568;52.128;5.434;2023-07-30T10:12:59;101151.91;;;21.91;71.49
71716;BME280;59568;52.128;5.434;2023-07-30T10:15:27;101147.88;;;22.01;69.43
71716;BME280;59568;52.128;5.434;2023-07-30T10:17:56;101148.53;;;21.71;68.70
71716;BME280;59568;52.128;5.434;2023-07-30T10:20:27;101164.13;;;21.73;69.34
71716;BME280;59568;52.128;5.434;2023-07-30T10:22:57;101157.94;;;21.88;68.31
71716;BME280;59568;52.128;5.434;2023-07-30T10:25:47;101166.09;;;22.22;68.35
71716;BME280;59568;52.128;5.434;2023-07-30T10:31:02;101149.97;;;21.88;66.34
71716;BME280;59568;52.128;5.434;2023-07-30T10:33:51;101159.38;;;21.63;65.90
71716;BME280;59568;52.128;5.434;2023-07-30T10:36:33;101163.47;;;21.37;68.24
71716;BME280;59568;52.128;5.434;2023-07-30T10:39:19;101170.59;;;21.33;68.61
71716;BME280;59568;52.128;5.434;2023-07-30T10:41:49;101170.38;;;21.42;68.09
71716;BME280;59568;52.128;5.434;2023-07-30T10:44:27;101163.47;;;21.37;68.88
71716;BME280;59568;52.128;5.434;2023-07-30T10:46:59;101168.78;;;21.37;69.14
71716;BME280;59568;52.128;5.434;2023-07-30T10:49:27;101167.09;;;21.29;69.21
71716;BME280;59568;52.128;5.434;2023-07-30T10:51:55;101165.19;;;21.10;67.14
71716;BME280;59568;52.128;5.434;2023-07-30T10:54:22;101172.72;;;21.43;70.09
71716;BME280;59568;52.128;5.434;2023-07-30T10:56:48;101172.53;;;22.21;69.29
71716;BME280;59568;52.128;5.434;2023-07-30T10:59:15;101170.63;;;22.71;68.40
71716;BME280;59568;52.128;5.434;2023-07-30T11:01:43;101189.88;;;23.15;65.87
71716;BME280;59568;52.128;5.434;2023-07-30T11:04:29;101180.72;;;22.85;62.78
71716;BME280;59568;52.128;5.434;2023-07-30T11:06:55;101172.31;;;23.13;63.45
71716;BME280;59568;52.128;5.434;2023-07-30T11:09:24;101173.66;;;23.68;63.28
71716;BME280;59568;52.128;5.434;2023-07-30T11:11:52;101173.97;;;23.97;62.05
71716;BME280;59568;52.128;5.434;2023-07-30T11:14:20;101176.34;;;23.68;62.36
71716;BME280;59568;52.128;5.434;2023-07-30T11:16:58;101181.59;;;23.23;60.98
71716;BME280;59568;52.128;5.434;2023-07-30T11:19:26;101189.97;;;22.95;63.16
71716;BME280;59568;52.128;5.434;2023-07-30T11:21:55;101197.88;;;22.88;62.09
71716;BME280;59568;52.128;5.434;2023-07-30T11:24:36;101185.28;;;22.58;58.79
71716;BME280;59568;52.128;5.434;2023-07-30T11:27:03;101199.09;;;22.41;61.94
71716;BME280;59568;52.128;5.434;2023-07-30T11:29:30;101184.84;;;22.29;62.61
71716;BME280;59568;52.128;5.434;2023-07-30T11:31:58;101195.47;;;22.26;62.52
71716;BME280;59568;52.128;5.434;2023-07-30T11:34:26;101204.06;;;22.19;62.09
71716;BME280;59568;52.128;5.434;2023-07-30T11:36:54;101206.31;;;22.17;62.62
71716;BME280;59568;52.128;5.434;2023-07-30T11:39:22;101208.13;;;22.13;62.51
71716;BME280;59568;52.128;5.434;2023-07-30T11:41:51;101203.72;;;22.44;62.94
71716;BME280;59568;52.128;5.434;2023-07-30T11:44:38;101216.47;;;22.58;62.98
71716;BME280;59568;52.128;5.434;2023-07-30T11:47:07;101203.72;;;22.70;61.08
71716;BME280;59568;52.128;5.434;2023-07-30T11:49:34;101199.72;;;23.10;62.57
71716;BME280;59568;52.128;5.434;2023-07-30T11:52:13;101214.56;;;23.42;59.64
71716;BME280;59568;52.128;5.434;2023-07-30T11:54:39;101211.03;;;23.68;60.20
71716;BME280;59568;52.128;5.434;2023-07-30T11:57:06;101205.50;;;23.50;57.53
71716;BME280;59568;52.128;5.434;2023-07-30T11:59:33;101205.88;;;23.15;59.47
71716;BME280;59568;52.128;5.434;2023-07-30T12:02:00;101205.50;;;22.89;58.80
71716;BME280;59568;52.128;5.434;2023-07-30T12:04:45;101210.19;;;22.96;61.08
71716;BME280;59568;52.128;5.434;2023-07-30T12:07:25;101222.16;;;22.83;60.36
71716;BME280;59568;52.128;5.434;2023-07-30T12:09:52;101218.53;;;22.68;62.65
71716;BME280;59568;52.128;5.434;2023-07-30T12:12:19;101225.94;;;22.55;62.08
71716;BME280;59568;52.128;5.434;2023-07-30T12:17:15;101225.25;;;22.12;63.41
71716;BME280;59568;52.128;5.434;2023-07-30T12:19:42;101225.72;;;22.18;63.49
71716;BME280;59568;52.128;5.434;2023-07-30T12:22:09;101225.84;;;22.25;63.95
71716;BME280;59568;52.128;5.434;2023-07-30T12:24:35;101221.03;;;22.57;62.10
71716;BME280;59568;52.128;5.434;2023-07-30T12:27:02;101223.41;;;22.62;62.38
71716;BME280;59568;52.128;5.434;2023-07-30T12:29:29;101217.19;;;22.54;62.73
71716;BME280;59568;52.128;5.434;2023-07-30T12:31:56;101228.38;;;22.90;62.14
71716;BME280;59568;52.128;5.434;2023-07-30T12:34:24;101227.44;;;23.36;61.58
71716;BME280;59568;52.128;5.434;2023-07-30T12:36:50;101214.53;;;23.38;60.20
71716;BME280;59568;52.128;5.434;2023-07-30T12:39:17;101228.50;;;23.01;59.68
71716;BME280;59568;52.128;5.434;2023-07-30T12:41:44;101222.47;;;22.51;60.23
71716;BME280;59568;52.128;5.434;2023-07-30T12:44:11;101218.44;;;22.14;60.40
71716;BME280;59568;52.128;5.434;2023-07-30T12:46:37;101234.50;;;21.99;60.72
71716;BME280;59568;52.128;5.434;2023-07-30T12:49:04;101223.09;;;22.67;61.05
71716;BME280;59568;52.128;5.434;2023-07-30T12:51:32;101220.03;;;22.96;60.05
71716;BME280;59568;52.128;5.434;2023-07-30T12:53:59;101221.78;;;23.41;58.97
71716;BME280;59568;52.128;5.434;2023-07-30T12:56:26;101235.88;;;23.38;57.44